createdAt,value
2023-05-06T00:04:25.659Z,13.75
2023-05-06T00:07:12.672Z,13.73
2023-05-06T00:09:59.030Z,13.62
2023-05-06T00:12:45.228Z,13.61
2023-05-06T00:15:32.299Z,13.59
2023-05-06T00:18:25.356Z,13.65
2023-05-06T00:21:12.589Z,13.71
2023-05-06T00:23:58.616Z,13.83
2023-05-06T00:26:51.216Z,13.95
2023-05-06T00:29:43.821Z,14.00
2023-05-06T00:32:36.268Z,14.08
2023-05-06T00:35:29.654Z,14.12
2023-05-06T00:38:24.268Z,14.22
2023-05-06T00:41:18.949Z,14.19
2023-05-06T00:47:24.941Z,13.99
2023-05-06T00:50:18.642Z,13.89
2023-05-06T00:53:11.449Z,13.79
2023-05-06T00:56:06.182Z,13.66
2023-05-06T00:59:00.616Z,13.60
2023-05-06T01:01:53.819Z,13.53
2023-05-06T01:04:47.264Z,13.49
2023-05-06T01:07:44.970Z,13.36
2023-05-06T01:10:43.808Z,13.34
2023-05-06T01:13:41.473Z,13.27
2023-05-06T01:16:38.824Z,13.14
2023-05-06T01:19:38.807Z,12.93
2023-05-06T01:22:31.421Z,12.71
2023-05-06T01:25:25.383Z,12.76
2023-05-06T01:28:18.393Z,12.77
2023-05-06T01:31:13.956Z,12.67
2023-05-06T01:34:11.743Z,12.43
2023-05-06T01:37:08.577Z,12.17
2023-05-06T01:40:01.684Z,11.87
2023-05-06T01:42:56.110Z,11.84
2023-05-06T01:45:53.210Z,11.58
2023-05-06T01:48:46.905Z,11.56
2023-05-06T01:51:39.980Z,11.55
2023-05-06T01:54:40.773Z,11.51
2023-05-06T01:57:33.176Z,11.45
2023-05-06T02:00:30.253Z,11.43
2023-05-06T02:03:23.048Z,11.39
2023-05-06T02:06:15.777Z,11.53
2023-05-06T02:09:10.039Z,11.47
2023-05-06T02:12:12.915Z,11.45
2023-05-06T02:15:07.219Z,11.34
2023-05-06T02:18:01.486Z,11.17
2023-05-06T02:20:53.872Z,11.11
2023-05-06T02:23:48.103Z,11.14
2023-05-06T02:26:40.846Z,11.20
2023-05-06T02:32:46.959Z,11.06
2023-05-06T02:35:42.031Z,11.01
2023-05-06T02:41:45.800Z,10.94
2023-05-06T02:44:39.526Z,10.77
2023-05-06T02:47:46.059Z,10.89
2023-05-06T02:50:39.182Z,10.92
2023-05-06T02:53:33.520Z,10.71
2023-05-06T02:56:25.843Z,10.65
2023-05-06T02:59:18.899Z,10.63
2023-05-06T03:02:12.204Z,10.57
2023-05-06T03:05:05.030Z,10.63
2023-05-06T03:07:58.755Z,10.59
2023-05-06T03:10:51.189Z,10.60
2023-05-06T03:13:46.193Z,10.62
2023-05-06T03:16:39.053Z,10.64
2023-05-06T03:19:31.786Z,10.48
2023-05-06T03:22:25.132Z,10.45
2023-05-06T03:25:18.424Z,10.36
2023-05-06T03:31:45.616Z,10.16
2023-05-06T03:37:51.279Z,10.39
2023-05-06T03:40:44.998Z,10.45
2023-05-06T03:43:46.418Z,10.47
2023-05-06T03:46:41.537Z,10.43
2023-05-06T03:49:35.022Z,10.20
2023-05-06T03:52:28.124Z,10.12
2023-05-06T03:55:21.179Z,10.20
2023-05-06T03:58:13.895Z,10.24
2023-05-06T04:01:08.995Z,10.24
2023-05-06T04:04:02.316Z,10.37
2023-05-06T04:06:58.208Z,10.49
2023-05-06T04:10:16.032Z,10.58
2023-05-06T04:13:13.133Z,10.82
2023-05-06T04:16:10.514Z,11.00
2023-05-06T04:19:07.060Z,11.26
2023-05-06T04:22:02.410Z,11.34
2023-05-06T04:24:56.222Z,11.32
2023-05-06T04:27:49.614Z,11.40
2023-05-06T04:30:42.900Z,11.64
2023-05-06T04:33:36.191Z,11.72
2023-05-06T04:37:11.207Z,11.76
2023-05-06T04:40:12.143Z,11.78
2023-05-06T04:43:31.248Z,12.23
2023-05-06T04:46:31.830Z,12.46
2023-05-06T04:49:50.475Z,12.84
2023-05-06T04:52:44.237Z,13.01
2023-05-06T04:55:54.120Z,13.14
2023-05-06T04:58:48.157Z,13.23
2023-05-06T05:05:28.276Z,13.61
2023-05-06T05:08:23.316Z,13.80
2023-05-06T05:11:16.414Z,13.86
2023-05-06T05:14:10.410Z,13.80
2023-05-06T05:17:03.336Z,13.82
2023-05-06T05:20:21.126Z,14.20
2023-05-06T05:23:13.903Z,14.53
2023-05-06T05:26:08.956Z,14.75
2023-05-06T05:29:02.069Z,14.87
2023-05-06T05:31:56.462Z,14.98
2023-05-06T05:34:44.718Z,15.13
2023-05-06T05:37:38.133Z,15.05
2023-05-06T05:40:32.035Z,15.19
2023-05-06T05:43:25.925Z,15.54
2023-05-06T05:46:19.765Z,16.42
2023-05-06T05:49:15.281Z,17.27
2023-05-06T05:55:21.764Z,17.26
2023-05-06T05:58:15.841Z,17.36
2023-05-06T06:01:10.103Z,17.35
2023-05-06T06:04:03.064Z,16.92
2023-05-06T06:06:59.258Z,16.99
2023-05-06T06:09:53.004Z,17.11
2023-05-06T06:12:45.825Z,17.36
2023-05-06T06:15:42.951Z,17.84
2023-05-06T06:18:38.950Z,18.40
2023-05-06T06:21:32.188Z,18.68
2023-05-06T06:24:27.027Z,18.64
2023-05-06T06:27:19.829Z,18.99
2023-05-06T06:30:13.717Z,19.30
2023-05-06T06:33:05.764Z,19.56
2023-05-06T06:35:59.108Z,19.96
2023-05-06T06:38:51.802Z,19.96
2023-05-06T06:41:45.186Z,19.79
2023-05-06T06:44:38.110Z,19.90
2023-05-06T06:47:31.242Z,20.30
2023-05-06T06:53:36.337Z,21.18
2023-05-06T06:56:29.216Z,20.82
2023-05-06T06:59:17.340Z,20.18
2023-05-06T07:02:09.771Z,20.19
2023-05-06T07:05:02.266Z,19.83
2023-05-06T07:07:55.335Z,19.80
2023-05-06T07:10:48.039Z,20.60
2023-05-06T07:13:44.839Z,20.99
2023-05-06T07:16:39.344Z,21.48
2023-05-06T07:19:32.368Z,22.04
2023-05-06T07:22:25.093Z,22.90
2023-05-06T07:25:17.900Z,23.93
2023-05-06T07:28:10.778Z,24.85
2023-05-06T07:34:15.473Z,25.62
2023-05-06T07:37:08.674Z,26.28
2023-05-06T07:40:00.773Z,26.71
2023-05-06T07:42:53.204Z,27.55
2023-05-06T07:45:45.952Z,27.35
2023-05-06T07:48:39.151Z,28.45
2023-05-06T07:51:33.548Z,29.15
2023-05-06T07:54:25.902Z,28.90
2023-05-06T07:57:18.919Z,27.76
2023-05-06T08:00:12.751Z,28.56
2023-05-06T08:03:05.288Z,29.55
2023-05-06T08:05:58.359Z,29.72
2023-05-06T08:08:52.611Z,29.03
2023-05-06T08:11:44.992Z,28.57
2023-05-06T08:14:38.196Z,27.90
2023-05-06T08:17:31.208Z,27.41
2023-05-06T08:20:24.094Z,28.04
2023-05-06T08:23:17.203Z,28.52
2023-05-06T08:26:11.355Z,28.17
2023-05-06T08:29:03.992Z,27.85
2023-05-06T08:31:57.274Z,27.57
2023-05-06T08:34:50.163Z,27.33
2023-05-06T08:37:43.026Z,27.11
2023-05-06T08:40:42.664Z,26.22
2023-05-06T08:43:41.500Z,25.47
2023-05-06T08:46:34.045Z,24.90
2023-05-06T08:49:27.146Z,24.72
2023-05-06T08:52:21.238Z,24.46
2023-05-06T08:55:14.619Z,24.79
2023-05-06T08:58:07.921Z,26.11
2023-05-06T09:01:04.040Z,26.62
2023-05-06T09:03:57.258Z,28.59
2023-05-06T09:06:52.100Z,30.40
2023-05-06T09:13:01.436Z,31.75
2023-05-06T09:15:55.272Z,30.95
2023-05-06T09:18:49.176Z,31.76
2023-05-06T09:21:43.833Z,32.10
2023-05-06T09:24:37.188Z,31.28
2023-05-06T09:27:33.849Z,30.57
2023-05-06T09:30:26.724Z,29.73
2023-05-06T09:33:19.027Z,29.87
2023-05-06T09:40:00.938Z,29.15
2023-05-06T09:42:54.050Z,29.32
2023-05-06T09:45:47.231Z,29.67
2023-05-06T09:48:40.491Z,29.92
2023-05-06T09:51:33.697Z,28.83
2023-05-06T09:54:26.361Z,28.23
2023-05-06T09:57:20.723Z,28.14
2023-05-06T10:00:13.879Z,28.03
2023-05-06T10:03:07.576Z,28.09
2023-05-06T10:06:02.113Z,28.20
2023-05-06T10:08:55.716Z,27.98
2023-05-06T10:11:48.409Z,28.62
2023-05-06T10:14:42.321Z,29.15
2023-05-06T10:17:35.952Z,29.81
2023-05-06T10:20:30.673Z,29.94
2023-05-06T10:23:26.163Z,29.81
2023-05-06T10:26:20.749Z,29.17
2023-05-06T10:29:14.613Z,29.39
2023-05-06T10:32:03.231Z,29.30
2023-05-06T10:34:57.184Z,29.32
2023-05-06T10:37:43.940Z,29.00
2023-05-06T10:40:31.249Z,29.56
2023-05-06T10:43:25.301Z,29.37
2023-05-06T10:46:12.848Z,30.00
2023-05-06T10:49:20.297Z,30.66
2023-05-06T10:52:14.416Z,30.56
2023-05-06T10:55:00.891Z,30.81
2023-05-06T10:57:46.906Z,30.46
2023-05-06T11:03:28.593Z,29.84
2023-05-06T11:09:32.799Z,28.76
2023-05-06T11:12:21.326Z,27.93
2023-05-06T11:18:41.779Z,27.45
2023-05-06T11:24:40.595Z,29.15
2023-05-06T11:30:42.099Z,29.46
2023-05-06T11:33:32.755Z,29.71
2023-05-06T11:36:25.643Z,29.28
2023-05-06T11:39:18.163Z,28.80
2023-05-06T11:42:12.255Z,28.74
2023-05-06T11:45:05.771Z,29.19
2023-05-06T11:47:58.243Z,29.95
2023-05-06T11:50:51.417Z,30.60
2023-05-06T11:53:44.126Z,29.44
2023-05-06T11:56:45.427Z,29.39
2023-05-06T11:59:40.744Z,29.49
2023-05-06T12:02:33.633Z,29.56
2023-05-06T12:05:27.488Z,29.95
2023-05-06T12:08:27.316Z,30.64
2023-05-06T12:11:22.211Z,31.43
2023-05-06T12:17:27.004Z,30.60
2023-05-06T12:23:32.535Z,29.88
2023-05-06T12:26:27.087Z,29.74
2023-05-06T12:29:57.299Z,30.30
2023-05-06T12:33:01.026Z,30.72
2023-05-06T12:35:56.902Z,30.89
2023-05-06T12:42:01.465Z,31.52
2023-05-06T12:44:53.984Z,32.17
2023-05-06T12:47:41.203Z,31.73
2023-05-06T12:50:40.390Z,30.89
2023-05-06T12:53:34.783Z,30.18
2023-05-06T12:56:27.199Z,29.33
2023-05-06T12:59:20.266Z,28.85
2023-05-06T13:02:13.674Z,28.44
2023-05-06T13:05:43.321Z,28.63
2023-05-06T13:08:37.350Z,28.69
2023-05-06T13:11:30.320Z,29.20
2023-05-06T13:14:23.601Z,29.40
2023-05-06T13:17:16.143Z,29.50
2023-05-06T13:20:09.832Z,29.70
2023-05-06T13:23:28.160Z,29.87
2023-05-06T13:26:22.335Z,30.01
2023-05-06T13:29:32.412Z,29.33
2023-05-06T13:32:22.211Z,29.25
2023-05-06T13:38:36.255Z,28.74
2023-05-06T13:41:30.704Z,28.79
2023-05-06T13:44:24.294Z,28.70
2023-05-06T13:47:16.939Z,28.96
2023-05-06T13:53:25.443Z,29.35
2023-05-06T13:56:18.374Z,28.83
2023-05-06T13:59:13.845Z,28.49
2023-05-06T14:02:09.347Z,28.32
2023-05-06T14:05:02.733Z,28.34
2023-05-06T14:07:55.024Z,28.28
2023-05-06T14:10:48.309Z,28.08
2023-05-06T14:13:41.380Z,27.94
2023-05-06T14:16:35.610Z,27.98
2023-05-06T14:19:29.905Z,28.12
2023-05-06T14:22:22.244Z,28.50
2023-05-06T14:25:15.081Z,28.48
2023-05-06T14:28:09.339Z,28.63
2023-05-06T14:31:02.194Z,28.68
2023-05-06T14:33:57.289Z,28.65
2023-05-06T14:36:51.704Z,28.75
2023-05-06T14:39:44.452Z,28.45
2023-05-06T14:42:37.457Z,28.29
2023-05-06T14:45:30.922Z,28.41
2023-05-06T14:48:25.196Z,28.32
2023-05-06T14:51:19.580Z,28.10
2023-05-06T14:54:12.131Z,27.94
2023-05-06T14:57:05.337Z,28.01
2023-05-06T14:59:58.337Z,27.80
2023-05-06T15:02:51.317Z,27.85
2023-05-06T15:08:57.796Z,28.16
2023-05-06T15:11:50.331Z,27.82
2023-05-06T15:14:43.282Z,27.82
2023-05-06T15:17:36.305Z,27.83
2023-05-06T15:20:29.474Z,27.95
2023-05-06T15:23:22.230Z,27.79
2023-05-06T15:26:16.148Z,27.71
2023-05-06T15:32:21.483Z,27.40
2023-05-06T15:35:14.461Z,27.17
2023-05-06T15:38:03.481Z,26.93
2023-05-06T15:40:55.978Z,26.64
2023-05-06T15:43:49.411Z,26.31
2023-05-06T15:46:44.136Z,25.97
2023-05-06T15:55:46.752Z,25.11
2023-05-06T16:04:55.431Z,24.70
2023-05-06T16:07:48.392Z,24.56
2023-05-06T16:10:41.127Z,24.22
2023-05-06T16:13:34.439Z,24.01
2023-05-06T16:19:37.315Z,23.67
2023-05-06T16:25:42.522Z,23.73
2023-05-06T16:28:35.124Z,23.73
2023-05-06T16:31:28.277Z,23.85
2023-05-06T16:34:21.305Z,23.83
2023-05-06T16:37:15.779Z,23.95
2023-05-06T16:40:10.444Z,24.04
2023-05-06T16:43:03.327Z,24.08
2023-05-06T16:45:56.384Z,24.12
2023-05-06T16:48:49.239Z,23.93
2023-05-06T16:51:42.343Z,23.84
2023-05-06T16:54:36.706Z,23.58
2023-05-06T16:57:28.972Z,23.35
2023-05-06T17:03:41.284Z,22.75
2023-05-06T17:06:34.438Z,22.55
2023-05-06T17:09:26.961Z,22.36
2023-05-06T17:12:23.729Z,22.25
2023-05-06T17:18:28.487Z,21.88
2023-05-06T17:24:37.457Z,21.96
2023-05-06T17:30:44.491Z,21.77
2023-05-06T17:33:38.827Z,21.43
2023-05-06T17:36:37.157Z,21.23
2023-05-06T17:39:30.160Z,20.98
2023-05-06T17:42:23.111Z,20.92
2023-05-06T17:45:17.902Z,20.74
2023-05-06T17:48:10.122Z,20.59
2023-05-06T17:51:03.736Z,20.35
2023-05-06T17:53:55.951Z,20.19
2023-05-06T17:56:50.408Z,20.15
2023-05-06T17:59:43.537Z,20.08
2023-05-06T18:02:37.863Z,20.01
2023-05-06T18:05:30.226Z,19.84
2023-05-06T18:08:37.574Z,19.79
2023-05-06T18:11:29.988Z,19.67
2023-05-06T18:18:09.627Z,19.56
2023-05-06T18:21:17.461Z,19.56
2023-05-06T18:24:15.967Z,19.43
2023-05-06T18:30:45.391Z,19.24
2023-05-06T18:33:39.678Z,19.27
2023-05-06T18:39:52.489Z,19.11
2023-05-06T18:46:06.321Z,18.95
2023-05-06T18:49:01.371Z,19.02
2023-05-06T18:51:54.619Z,18.81
2023-05-06T18:54:47.571Z,18.84
2023-05-06T18:57:40.049Z,18.87
2023-05-06T19:00:33.021Z,18.89
2023-05-06T19:03:26.220Z,18.73
2023-05-06T19:06:20.441Z,18.67
2023-05-06T19:09:13.356Z,18.62
2023-05-06T19:12:06.650Z,18.69
2023-05-06T19:14:59.949Z,18.58
2023-05-06T19:17:52.311Z,18.58
2023-05-06T19:20:45.584Z,18.63
2023-05-06T19:23:39.791Z,18.44
2023-05-06T19:27:00.463Z,18.34
2023-05-06T19:29:53.334Z,18.45
2023-05-06T19:33:23.402Z,18.53
2023-05-06T19:36:17.189Z,18.46
2023-05-06T19:39:47.399Z,18.40
2023-05-06T19:42:41.345Z,18.37
2023-05-06T19:45:34.737Z,18.35
2023-05-06T19:51:39.495Z,18.13
2023-05-06T19:54:32.139Z,18.09
2023-05-06T19:57:26.809Z,18.15
2023-05-06T20:00:21.900Z,18.08
2023-05-06T20:03:14.554Z,18.05
2023-05-06T20:06:07.459Z,18.08
2023-05-06T20:12:36.233Z,17.86
2023-05-06T20:15:30.915Z,18.06
2023-05-06T20:18:23.640Z,18.06
2023-05-06T20:21:16.586Z,17.97
2023-05-06T20:24:09.428Z,17.80
2023-05-06T20:27:02.378Z,17.88
2023-05-06T20:29:54.946Z,17.86
2023-05-06T20:32:50.226Z,17.83
2023-05-06T20:35:44.545Z,17.86
2023-05-06T20:38:39.065Z,17.80
2023-05-06T20:41:32.877Z,17.78
2023-05-06T20:44:25.775Z,17.64
2023-05-06T20:47:18.349Z,17.74
2023-05-06T20:53:26.582Z,17.54
2023-05-06T20:56:20.474Z,17.61
2023-05-06T20:59:13.019Z,17.73
2023-05-06T21:02:05.903Z,17.72
2023-05-06T21:04:58.166Z,17.75
2023-05-06T21:07:50.479Z,17.83
2023-05-06T21:10:44.832Z,17.85
2023-05-06T21:13:37.457Z,17.82
2023-05-06T21:16:30.382Z,17.75
2023-05-06T21:19:22.991Z,17.67
2023-05-06T21:22:18.940Z,17.53
2023-05-06T21:25:12.997Z,17.43
2023-05-06T21:31:54.518Z,17.43
2023-05-06T21:34:47.504Z,17.34
2023-05-06T21:37:40.459Z,17.38
2023-05-06T21:40:33.441Z,17.35
2023-05-06T21:43:26.068Z,17.24
2023-05-06T21:46:19.568Z,17.11
2023-05-06T21:49:13.572Z,17.03
2023-05-06T21:52:07.315Z,16.80
2023-05-06T21:55:00.582Z,16.71
2023-05-06T21:57:52.867Z,16.62
2023-05-06T22:00:45.959Z,16.57
2023-05-06T22:03:38.472Z,16.46
2023-05-06T22:06:32.290Z,16.49
2023-05-06T22:09:24.980Z,16.56
2023-05-06T22:12:19.826Z,16.59
2023-05-06T22:15:14.471Z,16.62
2023-05-06T22:18:08.524Z,16.59
2023-05-06T22:21:01.182Z,16.45
2023-05-06T22:23:55.458Z,16.45
2023-05-06T22:26:48.022Z,16.31
2023-05-06T22:29:40.246Z,16.28
2023-05-06T22:32:33.049Z,16.31
2023-05-06T22:35:26.402Z,16.34
2023-05-06T22:38:19.392Z,16.06
2023-05-06T22:41:13.650Z,16.14
2023-05-06T22:44:06.580Z,16.03
2023-05-06T22:47:02.608Z,15.87
2023-05-06T22:49:55.427Z,16.01
2023-05-06T22:56:09.114Z,15.95
2023-05-06T22:59:03.694Z,16.03
2023-05-06T23:01:56.203Z,15.97
2023-05-06T23:04:49.294Z,15.88
2023-05-06T23:07:52.669Z,15.94
2023-05-06T23:10:39.484Z,16.12
2023-05-06T23:13:35.889Z,16.16
2023-05-06T23:16:30.331Z,16.00
2023-05-06T23:19:22.999Z,15.97
2023-05-06T23:25:31.518Z,15.59
2023-05-06T23:31:37.895Z,15.52
2023-05-06T23:34:29.987Z,15.62
2023-05-06T23:37:17.401Z,15.57
2023-05-06T23:40:12.387Z,15.48
2023-05-06T23:42:58.294Z,15.52
2023-05-06T23:45:44.388Z,15.49
2023-05-06T23:48:31.816Z,15.44
2023-05-06T23:51:18.094Z,15.34
2023-05-06T23:54:03.918Z,15.45
2023-05-06T23:56:50.530Z,15.39
2023-05-06T23:59:54.300Z,15.38
